Time,TemperatureF,DewpointF,PressureIn,WindDirection,WindDirectionDegrees,WindSpeedMPH,WindSpeedGustMPH,Humidity,HourlyPrecipIn,Conditions,Clouds,dailyrainin,SolarRadiationWatts/m^2,SoftwareType,DateUTC
2013-08-18 00:11:00,59.0,38.0,-100.00,SW,225,6.0,8.0,45,0.00,,,0.00,0.000000,,2013-08-18 06:11:00,
2013-08-18 00:21:00,59.0,38.0,-100.00,SW,225,6.0,8.0,45,0.00,,,0.00,0.000000,,2013-08-18 06:21:00,
2013-08-18 00:31:00,59.0,38.0,-100.00,SW,225,6.0,8.0,45,0.00,,,0.00,0.000000,,2013-08-18 06:31:00,
2013-08-18 00:41:00,59.0,38.0,-100.00,SW,225,6.0,8.0,45,0.00,,,0.00,0.000000,,2013-08-18 06:41:00,
2013-08-18 01:11:00,57.0,38.0,-100.00,SW,225,6.0,8.0,49,0.00,,,0.00,0.000000,,2013-08-18 07:11:00,
2013-08-18 01:21:00,57.0,38.0,-100.00,SW,225,6.0,8.0,49,0.00,,,0.00,0.000000,,2013-08-18 07:21:00,
2013-08-18 01:31:00,57.0,38.0,-100.00,SW,225,6.0,8.0,49,0.00,,,0.00,0.000000,,2013-08-18 07:31:00,
2013-08-18 01:42:00,57.0,38.0,-100.00,SW,225,6.0,8.0,49,0.00,,,0.00,0.000000,,2013-08-18 07:42:00,
2013-08-18 02:12:00,54.0,36.0,-100.00,SW,233,4.0,6.0,51,0.00,,,0.00,0.000000,,2013-08-18 08:12:00,
2013-08-18 02:21:00,54.0,36.0,-100.00,SW,233,4.0,6.0,51,0.00,,,0.00,0.000000,,2013-08-18 08:21:00,
2013-08-18 02:32:00,54.0,36.0,-100.00,SW,233,4.0,6.0,51,0.00,,,0.00,0.000000,,2013-08-18 08:32:00,
2013-08-18 02:41:00,54.0,36.0,-100.00,SW,233,4.0,6.0,51,0.00,,,0.00,0.000000,,2013-08-18 08:41:00,
2013-08-18 03:11:00,57.0,38.0,-100.00,WSW,243,4.0,7.0,49,0.00,,,0.00,0.000000,,2013-08-18 09:11:00,
2013-08-18 03:21:00,57.0,38.0,-100.00,WSW,243,4.0,7.0,49,0.00,,,0.00,0.000000,,2013-08-18 09:21:00,
2013-08-18 03:33:00,57.0,38.0,-100.00,WSW,243,4.0,7.0,49,0.00,,,0.00,0.000000,,2013-08-18 09:33:00,
2013-08-18 03:43:00,57.0,38.0,-100.00,WSW,243,4.0,7.0,49,0.00,,,0.00,0.000000,,2013-08-18 09:43:00,
2013-08-18 04:13:00,55.0,37.0,-100.00,WSW,240,4.0,7.0,50,0.00,,,0.00,0.000000,,2013-08-18 10:13:00,
2013-08-18 04:22:00,55.0,37.0,-100.00,WSW,240,4.0,7.0,50,0.00,,,0.00,0.000000,,2013-08-18 10:22:00,
2013-08-18 04:32:00,55.0,37.0,-100.00,WSW,240,4.0,7.0,50,0.00,,,0.00,0.000000,,2013-08-18 10:32:00,
2013-08-18 04:42:00,55.0,37.0,-100.00,WSW,240,4.0,7.0,50,0.00,,,0.00,0.000000,,2013-08-18 10:42:00,
2013-08-18 05:11:00,50.0,36.0,-100.00,SW,224,6.0,12.0,58,0.00,,,0.00,0.000000,,2013-08-18 11:11:00,
2013-08-18 05:22:00,50.0,36.0,-100.00,SW,224,6.0,12.0,58,0.00,,,0.00,0.000000,,2013-08-18 11:22:00,
2013-08-18 05:32:00,50.0,36.0,-100.00,SW,224,6.0,12.0,58,0.00,,,0.00,0.000000,,2013-08-18 11:32:00,
2013-08-18 05:42:00,50.0,36.0,-100.00,SW,224,6.0,12.0,58,0.00,,,0.00,0.000000,,2013-08-18 11:42:00,
2013-08-18 06:11:00,52.0,37.0,-100.00,SW,232,5.0,9.0,56,0.00,,,0.00,0.000000,,2013-08-18 12:11:00,
2013-08-18 06:21:00,52.0,37.0,-100.00,SW,232,5.0,9.0,56,0.00,,,0.00,0.000000,,2013-08-18 12:21:00,
2013-08-18 06:31:00,52.0,37.0,-100.00,SW,232,5.0,9.0,56,0.00,,,0.00,0.000000,,2013-08-18 12:31:00,
2013-08-18 06:41:00,52.0,37.0,-100.00,SW,232,5.0,9.0,56,0.00,,,0.00,0.000000,,2013-08-18 12:41:00,
2013-08-18 07:11:00,52.0,37.0,-100.00,SW,227,3.0,6.0,57,0.00,,,-99.99,4.000000,,2013-08-18 13:11:00,
2013-08-18 07:21:00,52.0,37.0,-100.00,SW,227,3.0,6.0,57,0.00,,,-99.99,4.000000,,2013-08-18 13:21:00,
2013-08-18 07:32:00,52.0,37.0,-100.00,SW,227,3.0,6.0,57,0.00,,,-99.99,4.000000,,2013-08-18 13:32:00,
2013-08-18 07:42:00,52.0,37.0,-100.00,SW,227,3.0,6.0,57,0.00,,,-99.99,4.000000,,2013-08-18 13:42:00,
2013-08-18 08:11:00,52.0,38.0,-100.00,West,262,1.0,6.0,59,0.00,,,0.00,81.000000,,2013-08-18 14:11:00,
2013-08-18 08:21:00,52.0,38.0,-100.00,West,262,1.0,6.0,59,0.00,,,0.00,81.000000,,2013-08-18 14:21:00,
2013-08-18 08:32:00,52.0,38.0,-100.00,West,262,1.0,6.0,59,0.00,,,0.00,81.000000,,2013-08-18 14:32:00,
2013-08-18 08:42:00,52.0,38.0,-100.00,West,262,1.0,6.0,59,0.00,,,0.00,81.000000,,2013-08-18 14:42:00,
2013-08-18 09:43:00,60.0,40.0,-100.00,West,275,0.0,5.0,48,0.00,,,0.00,335.000000,,2013-08-18 15:43:00,
2013-08-18 10:42:00,66.0,40.0,-100.00,SSW,197,3.0,9.0,39,0.00,,,0.00,607.000000,,2013-08-18 16:42:00,
2013-08-18 11:12:00,71.0,41.0,-100.00,WNW,300,4.0,10.0,34,0.00,,,0.00,854.000000,,2013-08-18 17:12:00,
2013-08-18 11:23:00,71.0,41.0,-100.00,WNW,300,4.0,10.0,34,0.00,,,0.00,854.000000,,2013-08-18 17:23:00,
2013-08-18 11:33:00,71.0,41.0,-100.00,WNW,300,4.0,10.0,34,0.00,,,0.00,854.000000,,2013-08-18 17:33:00,
2013-08-18 11:42:00,71.0,41.0,-100.00,WNW,300,4.0,10.0,34,0.00,,,0.00,854.000000,,2013-08-18 17:42:00,
2013-08-18 12:12:00,74.0,40.0,-100.00,East,94,3.0,11.0,29,0.00,,,0.00,1010.000000,,2013-08-18 18:12:00,
2013-08-18 12:21:00,74.0,40.0,-100.00,East,94,3.0,11.0,29,0.00,,,0.00,1010.000000,,2013-08-18 18:21:00,
2013-08-18 12:32:00,74.0,40.0,-100.00,East,94,3.0,11.0,29,0.00,,,0.00,1010.000000,,2013-08-18 18:32:00,
2013-08-18 12:42:00,74.0,40.0,-100.00,East,94,3.0,11.0,29,0.00,,,0.00,1010.000000,,2013-08-18 18:42:00,
2013-08-18 13:41:00,79.0,41.0,-100.00,SSE,148,4.0,11.0,26,0.00,,,0.00,1082.000000,,2013-08-18 19:41:00,
2013-08-18 14:42:00,59.0,45.0,-100.00,WSW,241,24.0,33.0,59,-99.99,,,0.00,648.000000,,2013-08-18 20:42:00,
2013-08-18 15:11:00,58.0,41.0,-100.00,SW,219,17.0,37.0,53,0.00,,,0.00,117.000000,,2013-08-18 21:11:00,
2013-08-18 15:21:00,58.0,41.0,-100.00,SW,219,17.0,37.0,53,0.00,,,0.00,117.000000,,2013-08-18 21:21:00,
2013-08-18 15:32:00,58.0,41.0,-100.00,SW,219,17.0,37.0,53,0.00,,,0.00,117.000000,,2013-08-18 21:32:00,
2013-08-18 15:42:00,58.0,41.0,-100.00,SW,219,17.0,37.0,53,0.00,,,0.00,117.000000,,2013-08-18 21:42:00,
2013-08-18 16:13:00,60.0,42.0,-100.00,NE,39,6.0,25.0,52,0.00,,,0.00,209.000000,,2013-08-18 22:13:00,
2013-08-18 16:23:00,60.0,42.0,-100.00,NE,39,6.0,25.0,52,0.00,,,0.00,209.000000,,2013-08-18 22:23:00,
2013-08-18 16:34:00,60.0,42.0,-100.00,NE,39,6.0,25.0,52,0.00,,,0.00,209.000000,,2013-08-18 22:34:00,
2013-08-18 16:42:00,60.0,42.0,-100.00,NE,39,6.0,25.0,52,0.00,,,0.00,209.000000,,2013-08-18 22:42:00,
2013-08-18 17:22:00,63.0,43.0,-100.00,ESE,103,9.0,19.0,48,0.00,,,0.00,341.000000,,2013-08-18 23:22:00,
2013-08-18 17:33:00,63.0,43.0,-100.00,ESE,103,9.0,19.0,48,0.00,,,0.00,341.000000,,2013-08-18 23:33:00,
2013-08-18 17:42:00,63.0,43.0,-100.00,ESE,103,9.0,19.0,48,0.00,,,0.00,341.000000,,2013-08-18 23:42:00,
2013-08-18 19:11:00,60.0,42.0,-100.00,NE,38,6.0,13.0,51,-99.99,,,0.00,351.000000,,2013-08-19 01:11:00,
2013-08-18 19:22:00,60.0,42.0,-100.00,NE,38,6.0,13.0,51,-99.99,,,0.00,351.000000,,2013-08-19 01:22:00,
2013-08-18 19:31:00,60.0,42.0,-100.00,NE,38,6.0,13.0,51,-99.99,,,0.00,351.000000,,2013-08-19 01:31:00,
2013-08-18 19:41:00,60.0,42.0,-100.00,NE,38,6.0,13.0,51,-99.99,,,0.00,351.000000,,2013-08-19 01:41:00,
2013-08-18 20:11:00,57.0,45.0,-100.00,NE,44,8.0,11.0,64,0.00,,,0.00,70.000000,,2013-08-19 02:11:00,
2013-08-18 20:21:00,57.0,45.0,-100.00,NE,44,8.0,11.0,64,0.00,,,0.00,70.000000,,2013-08-19 02:21:00,
2013-08-18 20:32:00,57.0,45.0,-100.00,NE,44,8.0,11.0,64,0.00,,,0.00,70.000000,,2013-08-19 02:32:00,
2013-08-18 20:42:00,57.0,45.0,-100.00,NE,44,8.0,11.0,64,0.00,,,0.00,70.000000,,2013-08-19 02:42:00,
2013-08-18 21:11:00,52.0,45.0,-100.00,NE,56,7.0,12.0,77,0.00,,,0.00,1.000000,,2013-08-19 03:11:00,
2013-08-18 21:21:00,52.0,45.0,-100.00,NE,56,7.0,12.0,77,0.00,,,0.00,1.000000,,2013-08-19 03:21:00,
2013-08-18 21:33:00,52.0,45.0,-100.00,NE,56,7.0,12.0,77,0.00,,,0.00,1.000000,,2013-08-19 03:33:00,
2013-08-18 21:42:00,52.0,45.0,-100.00,NE,56,7.0,12.0,77,0.00,,,0.00,1.000000,,2013-08-19 03:42:00,
2013-08-18 22:12:00,52.0,43.0,-100.00,ENE,75,12.0,16.0,71,0.00,,,0.00,0.000000,,2013-08-19 04:12:00,
2013-08-18 22:23:00,52.0,43.0,-100.00,ENE,75,12.0,16.0,71,0.00,,,0.00,0.000000,,2013-08-19 04:23:00,
2013-08-18 22:33:00,52.0,43.0,-100.00,ENE,75,12.0,16.0,71,0.00,,,0.00,0.000000,,2013-08-19 04:33:00,
2013-08-18 22:42:00,52.0,43.0,-100.00,ENE,75,12.0,16.0,71,0.00,,,0.00,0.000000,,2013-08-19 04:42:00,
2013-08-18 23:22:00,51.0,44.0,-100.00,SSW,213,5.0,13.0,76,0.00,,,0.00,0.000000,,2013-08-19 05:22:00,
2013-08-18 23:33:00,51.0,44.0,-100.00,SSW,213,5.0,13.0,76,0.00,,,0.00,0.000000,,2013-08-19 05:33:00,
2013-08-18 23:42:00,51.0,44.0,-100.00,SSW,213,5.0,13.0,76,0.00,,,0.00,0.000000,,2013-08-19 05:42:00,